createdAt,value
2023-06-08T00:00:08.102Z,8.17
2023-06-08T00:01:07.872Z,8.58
2023-06-08T00:02:07.910Z,6.94
2023-06-08T00:03:08.062Z,7.69
2023-06-08T00:04:08.062Z,7.40
2023-06-08T00:05:08.207Z,8.14
2023-06-08T00:06:08.166Z,7.46
2023-06-08T00:07:08.227Z,7.83
2023-06-08T00:08:08.248Z,8.68
2023-06-08T00:09:08.310Z,7.44
2023-06-08T00:10:08.550Z,7.64
2023-06-08T00:11:08.509Z,7.31
2023-06-08T00:12:08.401Z,8.10
2023-06-08T00:13:08.427Z,8.18
2023-06-08T00:14:08.455Z,7.42
2023-06-08T00:15:08.555Z,7.23
2023-06-08T00:16:08.533Z,6.62
2023-06-08T00:17:08.522Z,7.14
2023-06-08T00:18:08.680Z,7.01
2023-06-08T00:19:08.608Z,7.57
2023-06-08T00:20:08.752Z,7.27
2023-06-08T00:21:08.596Z,7.14
2023-06-08T00:22:08.724Z,7.62
2023-06-08T00:23:08.735Z,7.57
2023-06-08T00:24:08.950Z,7.91
2023-06-08T00:25:08.876Z,8.17
2023-06-08T00:26:08.908Z,7.28
2023-06-08T00:27:08.913Z,7.47
2023-06-08T00:28:08.930Z,7.24
2023-06-08T00:29:08.897Z,7.47
2023-06-08T00:30:09.142Z,6.84
2023-06-08T00:31:08.995Z,6.81
2023-06-08T00:32:09.034Z,7.55
2023-06-08T00:33:08.980Z,8.18
2023-06-08T00:34:08.986Z,7.45
2023-06-08T00:35:08.975Z,6.96
2023-06-08T00:36:09.018Z,7.80
2023-06-08T00:37:09.041Z,7.95
2023-06-08T00:38:09.058Z,7.23
2023-06-08T00:39:09.089Z,7.44
2023-06-08T00:40:09.432Z,8.28
2023-06-08T00:41:09.117Z,7.31
2023-06-08T00:42:09.139Z,7.96
2023-06-08T00:43:09.201Z,7.43
2023-06-08T00:44:09.185Z,8.17
2023-06-08T00:45:09.244Z,7.81
2023-06-08T00:46:09.322Z,8.04
2023-06-08T00:47:09.295Z,7.07
2023-06-08T00:48:09.378Z,7.39
2023-06-08T00:49:09.365Z,8.54
2023-06-08T00:50:09.414Z,7.42
2023-06-08T00:51:09.416Z,6.80
2023-06-08T00:52:12.600Z,7.74
2023-06-08T00:53:09.706Z,8.10
2023-06-08T00:54:09.411Z,8.49
2023-06-08T00:55:09.397Z,8.45
2023-06-08T00:56:09.398Z,7.97
2023-06-08T00:57:09.384Z,7.84
2023-06-08T00:58:09.380Z,8.87
2023-06-08T00:59:09.368Z,8.08
2023-06-08T01:00:09.461Z,8.42
2023-06-08T01:01:09.369Z,7.76
2023-06-08T01:02:09.368Z,7.87
2023-06-08T01:03:09.715Z,7.72
2023-06-08T01:04:09.357Z,7.82
2023-06-08T01:05:09.352Z,7.79
2023-06-08T01:06:09.563Z,8.86
2023-06-08T01:07:09.352Z,8.22
2023-06-08T01:08:09.352Z,8.20
2023-06-08T01:09:09.322Z,8.06
2023-06-08T01:10:09.382Z,8.27
2023-06-08T01:11:09.287Z,8.68
2023-06-08T01:12:09.293Z,8.01
2023-06-08T01:13:09.305Z,7.70
2023-06-08T01:14:09.283Z,9.12
2023-06-08T01:15:09.304Z,8.36
2023-06-08T01:16:09.387Z,7.80
2023-06-08T01:17:09.268Z,9.01
2023-06-08T01:18:09.344Z,8.43
2023-06-08T01:19:09.260Z,7.49
2023-06-08T01:20:09.441Z,8.42
2023-06-08T01:21:09.258Z,8.35
2023-06-08T01:22:09.226Z,7.93
2023-06-08T01:23:09.234Z,7.84
2023-06-08T01:24:09.319Z,7.77
2023-06-08T01:25:09.216Z,7.85
2023-06-08T01:26:09.193Z,7.74
2023-06-08T01:27:09.214Z,7.81
2023-06-08T01:28:09.184Z,8.79
2023-06-08T01:29:09.195Z,8.02
2023-06-08T01:30:09.756Z,7.65
2023-06-08T01:31:09.206Z,8.01
2023-06-08T01:32:09.199Z,7.82
2023-06-08T01:33:09.212Z,7.49
2023-06-08T01:34:09.148Z,7.83
2023-06-08T01:35:09.167Z,7.75
2023-06-08T01:36:09.224Z,7.46
2023-06-08T01:37:09.272Z,7.48
2023-06-08T01:38:09.301Z,7.61
2023-06-08T01:39:09.364Z,7.66
2023-06-08T01:40:09.717Z,7.25
2023-06-08T01:41:09.494Z,7.51
2023-06-08T01:42:09.553Z,7.39
2023-06-08T01:43:09.701Z,6.88
2023-06-08T01:44:09.683Z,6.94
2023-06-08T01:45:09.754Z,7.55
2023-06-08T01:46:09.919Z,7.65
2023-06-08T01:47:10.090Z,7.71
2023-06-08T01:48:09.996Z,7.05
2023-06-08T01:49:10.036Z,7.39
2023-06-08T01:50:10.272Z,7.25
2023-06-08T01:51:10.092Z,7.66
2023-06-08T01:52:10.862Z,7.49
2023-06-08T01:53:10.249Z,6.90
2023-06-08T01:54:10.317Z,7.70
2023-06-08T01:55:10.381Z,7.53
2023-06-08T01:56:10.409Z,7.41
2023-06-08T01:57:10.488Z,7.77
2023-06-08T01:58:10.552Z,8.05
2023-06-08T01:59:10.588Z,7.96
2023-06-08T02:00:10.667Z,7.65
2023-06-08T02:01:10.790Z,8.44
2023-06-08T02:02:10.767Z,7.95
2023-06-08T02:03:10.864Z,8.17
2023-06-08T02:04:10.869Z,7.86
2023-06-08T02:05:10.898Z,7.03
2023-06-08T02:06:10.949Z,7.94
2023-06-08T02:07:10.982Z,8.02
2023-06-08T02:08:11.073Z,7.32
2023-06-08T02:09:11.125Z,7.41
2023-06-08T02:10:11.185Z,7.50
2023-06-08T02:11:11.239Z,6.79
2023-06-08T02:12:11.302Z,7.42
2023-06-08T02:13:11.347Z,8.21
2023-06-08T02:14:11.449Z,7.95
2023-06-08T02:15:11.459Z,8.06
2023-06-08T02:16:11.568Z,8.21
2023-06-08T02:17:11.682Z,7.76
2023-06-08T02:18:11.674Z,7.93
2023-06-08T02:19:11.635Z,7.75
2023-06-08T02:20:11.699Z,8.03
2023-06-08T02:21:11.778Z,8.03
2023-06-08T02:22:11.839Z,9.44
2023-06-08T02:23:11.889Z,8.46
2023-06-08T02:24:11.983Z,8.49
2023-06-08T02:25:12.000Z,8.87
2023-06-08T02:26:12.054Z,8.76
2023-06-08T02:27:12.147Z,8.56
2023-06-08T02:28:12.210Z,9.04
2023-06-08T02:29:12.217Z,8.61
2023-06-08T02:30:12.286Z,8.34
2023-06-08T02:31:12.327Z,9.08
2023-06-08T02:32:12.320Z,8.90
2023-06-08T02:33:12.390Z,8.75
2023-06-08T02:34:12.381Z,8.44
2023-06-08T02:35:12.396Z,8.87
2023-06-08T02:36:12.499Z,8.83
2023-06-08T02:37:12.487Z,9.16
2023-06-08T02:38:12.435Z,8.89
2023-06-08T02:39:12.675Z,9.72
2023-06-08T02:40:12.510Z,9.60
2023-06-08T02:41:12.497Z,10.19
2023-06-08T02:42:12.476Z,10.70
2023-06-08T02:43:12.501Z,10.67
2023-06-08T02:44:12.507Z,10.52
2023-06-08T02:45:12.505Z,10.11
2023-06-08T02:46:12.565Z,11.36
2023-06-08T02:47:12.540Z,13.00
2023-06-08T02:48:12.535Z,11.54
2023-06-08T02:49:12.561Z,11.68
2023-06-08T02:50:12.549Z,11.77
2023-06-08T02:51:12.583Z,12.42
2023-06-08T02:52:12.563Z,11.80
2023-06-08T02:53:12.598Z,13.68
2023-06-08T02:54:12.629Z,13.54
2023-06-08T02:55:12.719Z,12.45
2023-06-08T02:56:12.742Z,12.52
2023-06-08T02:57:12.807Z,12.64
2023-06-08T02:58:12.861Z,13.22
2023-06-08T02:59:12.840Z,13.31
2023-06-08T03:00:13.114Z,13.35
2023-06-08T03:01:20.989Z,13.58
2023-06-08T03:02:14.025Z,11.93
2023-06-08T03:03:13.036Z,11.96
2023-06-08T03:04:12.966Z,12.34
2023-06-08T03:05:12.887Z,12.51
2023-06-08T03:06:12.900Z,11.43
2023-06-08T03:07:12.871Z,12.64
2023-06-08T03:08:12.914Z,12.80
2023-06-08T03:09:12.847Z,12.22
2023-06-08T03:10:13.036Z,12.59
2023-06-08T03:11:12.847Z,11.95
2023-06-08T03:12:12.800Z,11.71
2023-06-08T03:13:12.814Z,12.15
2023-06-08T03:14:12.795Z,12.39
2023-06-08T03:15:12.826Z,11.60
2023-06-08T03:16:12.836Z,10.92
2023-06-08T03:17:12.799Z,11.38
2023-06-08T03:18:13.271Z,10.68
2023-06-08T03:19:12.882Z,10.71
2023-06-08T03:20:12.964Z,11.11
2023-06-08T03:21:12.972Z,10.54
2023-06-08T03:22:13.050Z,11.32
2023-06-08T03:23:13.068Z,10.95
2023-06-08T03:24:13.216Z,10.88
2023-06-08T03:25:13.213Z,11.54
2023-06-08T03:26:13.268Z,12.08
2023-06-08T03:27:13.318Z,11.54
2023-06-08T03:28:13.362Z,12.11
2023-06-08T03:29:13.377Z,11.49
2023-06-08T03:30:14.250Z,11.69
2023-06-08T03:31:14.284Z,11.17
2023-06-08T03:32:13.489Z,12.81
2023-06-08T03:33:13.489Z,12.50
2023-06-08T03:34:13.535Z,12.78
2023-06-08T03:35:13.547Z,11.31
2023-06-08T03:36:13.561Z,12.60
2023-06-08T03:37:13.582Z,12.74
2023-06-08T03:38:13.580Z,11.15
2023-06-08T03:39:13.662Z,10.40
2023-06-08T03:40:13.618Z,11.24
2023-06-08T03:41:13.668Z,10.17
2023-06-08T03:42:13.608Z,10.32
2023-06-08T03:43:13.667Z,11.45
2023-06-08T03:44:13.646Z,10.33
2023-06-08T03:45:13.653Z,10.58
2023-06-08T03:46:13.723Z,10.58
2023-06-08T03:47:13.669Z,10.21
2023-06-08T03:48:13.672Z,11.54
2023-06-08T03:49:13.702Z,10.45
2023-06-08T03:50:13.660Z,11.54
2023-06-08T03:51:13.693Z,12.31
2023-06-08T03:52:13.685Z,10.74
2023-06-08T03:53:13.724Z,10.11
2023-06-08T03:54:13.725Z,9.58
2023-06-08T03:55:13.707Z,9.94
2023-06-08T03:56:13.738Z,9.07
2023-06-08T03:57:13.775Z,8.97
2023-06-08T03:58:13.841Z,9.12
2023-06-08T03:59:13.741Z,9.33
2023-06-08T04:00:13.775Z,8.57
2023-06-08T04:01:13.814Z,8.73
2023-06-08T04:02:13.934Z,8.20
2023-06-08T04:03:13.929Z,7.89
2023-06-08T04:04:13.844Z,9.21
2023-06-08T04:05:13.819Z,8.81
2023-06-08T04:06:13.860Z,8.37
2023-06-08T04:07:13.887Z,8.68
2023-06-08T04:08:13.828Z,9.22
2023-06-08T04:09:13.863Z,8.12
2023-06-08T04:10:13.832Z,8.08
2023-06-08T04:11:13.911Z,8.43
2023-06-08T04:12:13.901Z,8.50
2023-06-08T04:13:13.935Z,8.48
2023-06-08T04:14:13.915Z,8.77
2023-06-08T04:15:13.882Z,9.06
2023-06-08T04:16:14.017Z,8.62
2023-06-08T04:17:13.910Z,9.75
2023-06-08T04:18:13.946Z,9.28
2023-06-08T04:19:13.975Z,10.07
2023-06-08T04:20:13.962Z,9.77
2023-06-08T04:21:13.953Z,9.21
2023-06-08T04:22:13.962Z,9.17
2023-06-08T04:23:14.035Z,9.15
2023-06-08T04:24:14.010Z,9.16
2023-06-08T04:25:13.998Z,9.58
2023-06-08T04:26:13.985Z,8.98
2023-06-08T04:27:13.997Z,9.30
2023-06-08T04:28:13.994Z,9.24
2023-06-08T04:29:14.110Z,9.00
2023-06-08T04:30:14.038Z,9.44
2023-06-08T04:31:14.065Z,8.62
2023-06-08T04:32:14.050Z,8.98
2023-06-08T04:33:14.104Z,9.16
2023-06-08T04:34:14.063Z,10.23
2023-06-08T04:35:14.108Z,10.01
2023-06-08T04:36:14.070Z,9.15
2023-06-08T04:37:14.060Z,9.42
2023-06-08T04:38:14.908Z,9.79
2023-06-08T04:39:14.095Z,10.88
2023-06-08T04:40:14.118Z,10.38
2023-06-08T04:41:14.128Z,10.15
2023-06-08T04:42:14.111Z,11.40
2023-06-08T04:43:14.307Z,10.70
2023-06-08T04:44:14.152Z,10.75
2023-06-08T04:45:14.140Z,10.83
2023-06-08T04:46:14.135Z,10.84
2023-06-08T04:47:14.223Z,10.95
2023-06-08T04:48:14.176Z,10.33
2023-06-08T04:49:14.139Z,10.33
2023-06-08T04:50:14.184Z,11.22
2023-06-08T04:51:14.146Z,10.68
2023-06-08T04:52:14.153Z,10.26
2023-06-08T04:53:14.218Z,11.13
2023-06-08T04:54:14.223Z,11.40
2023-06-08T04:55:14.317Z,10.87
2023-06-08T04:56:14.184Z,11.03
2023-06-08T04:57:14.193Z,11.43
2023-06-08T04:58:14.288Z,10.98
2023-06-08T04:59:14.224Z,10.02
2023-06-08T05:00:14.227Z,9.99
2023-06-08T05:01:14.217Z,10.30
2023-06-08T05:02:14.206Z,10.37
2023-06-08T05:03:14.312Z,10.77
2023-06-08T05:04:14.324Z,10.39
2023-06-08T05:05:14.270Z,10.66
2023-06-08T05:06:14.283Z,10.58
2023-06-08T05:07:14.274Z,10.82
2023-06-08T05:08:14.324Z,10.25
2023-06-08T05:09:14.300Z,10.48
2023-06-08T05:10:14.313Z,11.18
2023-06-08T05:11:14.312Z,10.71
2023-06-08T05:12:14.340Z,10.86
2023-06-08T05:13:14.358Z,10.95
2023-06-08T05:14:14.482Z,11.32
2023-06-08T05:15:14.307Z,10.88
2023-06-08T05:16:14.366Z,10.42
2023-06-08T05:17:14.457Z,11.33
2023-06-08T05:18:14.448Z,10.60
2023-06-08T05:19:14.366Z,10.79
2023-06-08T05:20:14.354Z,11.44
2023-06-08T05:21:14.367Z,11.23
2023-06-08T05:22:14.395Z,10.91
2023-06-08T05:23:14.370Z,10.85
2023-06-08T05:24:14.562Z,11.21
2023-06-08T05:25:14.368Z,11.07
2023-06-08T05:26:14.370Z,10.58
2023-06-08T05:27:14.362Z,10.91
2023-06-08T05:28:14.396Z,10.98
2023-06-08T05:29:14.447Z,11.09
2023-06-08T05:30:14.493Z,12.20
2023-06-08T05:31:14.651Z,11.72
2023-06-08T05:32:14.625Z,10.63
2023-06-08T05:33:14.666Z,12.08
2023-06-08T05:34:14.651Z,12.56
2023-06-08T05:35:14.661Z,12.25
2023-06-08T05:36:14.664Z,11.10
2023-06-08T05:37:14.708Z,11.82
2023-06-08T05:38:14.738Z,12.23
2023-06-08T05:39:14.745Z,12.49
2023-06-08T05:40:14.816Z,11.98
2023-06-08T05:41:14.758Z,11.56
2023-06-08T05:42:14.773Z,12.06
2023-06-08T05:43:14.831Z,11.53
2023-06-08T05:44:14.783Z,12.60
2023-06-08T05:45:15.787Z,12.82
2023-06-08T05:46:14.817Z,11.57
2023-06-08T05:47:14.797Z,12.21
2023-06-08T05:48:14.879Z,12.25
2023-06-08T05:49:14.899Z,11.26
2023-06-08T05:50:14.835Z,11.75
2023-06-08T05:51:14.820Z,13.05
2023-06-08T05:52:14.818Z,11.97
2023-06-08T05:53:14.870Z,12.26
2023-06-08T05:54:14.859Z,12.12
2023-06-08T05:55:14.953Z,12.00
2023-06-08T05:56:14.963Z,11.76
2023-06-08T05:57:15.007Z,12.75
2023-06-08T05:58:15.105Z,11.86
2023-06-08T05:59:15.115Z,12.36
2023-06-08T06:00:15.175Z,12.08
2023-06-08T06:01:15.254Z,13.02
2023-06-08T06:02:15.298Z,12.34
2023-06-08T06:03:15.537Z,12.58
2023-06-08T06:04:22.650Z,13.08
2023-06-08T06:05:16.517Z,12.70
2023-06-08T06:06:16.304Z,12.85
2023-06-08T06:07:15.399Z,12.93
2023-06-08T06:08:15.392Z,13.02
2023-06-08T06:09:15.371Z,13.36
2023-06-08T06:10:15.383Z,12.70
2023-06-08T06:11:15.394Z,11.78
2023-06-08T06:12:16.301Z,12.07
2023-06-08T06:13:15.402Z,13.18
2023-06-08T06:14:15.352Z,13.14
2023-06-08T06:15:15.364Z,12.22
2023-06-08T06:16:16.441Z,12.48
2023-06-08T06:17:15.395Z,12.29
2023-06-08T06:18:15.360Z,13.19
2023-06-08T06:19:15.310Z,13.32
2023-06-08T06:20:15.323Z,12.97
2023-06-08T06:21:15.296Z,13.05
2023-06-08T06:22:15.395Z,13.31
2023-06-08T06:23:15.506Z,12.13
2023-06-08T06:24:15.554Z,12.78
2023-06-08T06:25:15.517Z,10.94
2023-06-08T06:26:15.541Z,12.14
2023-06-08T06:27:16.303Z,12.22
2023-06-08T06:28:15.563Z,12.71
2023-06-08T06:29:15.517Z,11.77
2023-06-08T06:30:15.503Z,12.48
2023-06-08T06:31:15.545Z,11.84
2023-06-08T06:32:15.777Z,11.48
2023-06-08T06:33:15.744Z,12.10
2023-06-08T06:34:15.698Z,12.80
2023-06-08T06:35:15.803Z,12.96
2023-06-08T06:36:15.829Z,12.14
2023-06-08T06:37:15.853Z,12.68
2023-06-08T06:38:16.477Z,12.89
2023-06-08T06:39:16.014Z,12.62
2023-06-08T06:40:16.054Z,12.86
2023-06-08T06:41:16.136Z,11.92
2023-06-08T06:42:16.193Z,11.92
2023-06-08T06:43:16.238Z,10.99
2023-06-08T06:44:16.296Z,11.62
2023-06-08T06:45:16.353Z,11.49
2023-06-08T06:46:16.455Z,10.80
2023-06-08T06:47:16.503Z,10.91
2023-06-08T06:48:16.846Z,11.50
2023-06-08T06:49:16.560Z,11.33
2023-06-08T06:50:16.592Z,12.25
2023-06-08T06:51:16.582Z,12.19
2023-06-08T06:52:16.600Z,12.54
2023-06-08T06:53:16.613Z,12.48
2023-06-08T06:54:16.673Z,12.37
2023-06-08T06:55:16.662Z,11.98
2023-06-08T06:56:16.688Z,11.81
2023-06-08T06:57:16.666Z,12.10
2023-06-08T06:58:16.715Z,12.02
2023-06-08T06:59:16.685Z,11.99
2023-06-08T07:00:16.692Z,12.10
2023-06-08T07:01:16.725Z,12.48
2023-06-08T07:02:16.720Z,11.95
2023-06-08T07:03:16.782Z,12.02
2023-06-08T07:04:16.721Z,11.75
2023-06-08T07:05:16.745Z,10.95
2023-06-08T07:06:16.820Z,11.89
2023-06-08T07:07:16.740Z,11.04
2023-06-08T07:08:16.757Z,11.47
2023-06-08T07:09:16.759Z,11.49
2023-06-08T07:10:16.818Z,10.73
2023-06-08T07:11:16.813Z,11.31
2023-06-08T07:12:16.998Z,12.30
2023-06-08T07:13:16.801Z,11.24
2023-06-08T07:14:16.814Z,11.28
2023-06-08T07:15:16.817Z,11.23
2023-06-08T07:16:16.843Z,10.50
2023-06-08T07:17:16.848Z,10.27
2023-06-08T07:18:16.816Z,10.64
2023-06-08T07:19:16.926Z,10.73
2023-06-08T07:20:16.835Z,10.28
2023-06-08T07:21:16.837Z,10.23
2023-06-08T07:22:21.327Z,10.65
2023-06-08T07:23:18.992Z,10.11
2023-06-08T07:25:29.746Z,11.63
2023-06-08T07:25:47.328Z,9.93
2023-06-08T07:26:28.594Z,10.03
2023-06-08T07:27:16.797Z,10.35
2023-06-08T07:28:16.840Z,10.43
2023-06-08T07:29:16.830Z,10.93
2023-06-08T07:30:16.772Z,10.80
2023-06-08T07:31:16.791Z,10.32
2023-06-08T07:32:16.776Z,10.31
2023-06-08T07:33:16.761Z,10.53
2023-06-08T07:34:16.725Z,10.40
2023-06-08T07:35:16.743Z,9.81
2023-06-08T07:36:16.717Z,10.96
2023-06-08T07:37:16.737Z,10.63
2023-06-08T07:38:16.709Z,10.88
2023-06-08T07:39:16.855Z,9.99
2023-06-08T07:41:16.707Z,10.30
2023-06-08T07:42:16.681Z,10.26
2023-06-08T07:43:17.339Z,10.20
2023-06-08T07:44:16.711Z,11.17
2023-06-08T07:45:16.676Z,9.06
2023-06-08T07:46:16.706Z,8.78
2023-06-08T07:47:16.780Z,8.79
2023-06-08T07:48:16.791Z,9.89
2023-06-08T07:49:16.689Z,9.10
2023-06-08T07:50:16.695Z,9.85
2023-06-08T07:51:16.632Z,9.85
2023-06-08T07:53:16.665Z,9.61
2023-06-08T07:54:16.613Z,9.51
2023-06-08T07:55:16.610Z,9.83
2023-06-08T07:56:16.602Z,9.68
2023-06-08T07:57:17.358Z,9.96
2023-06-08T07:58:16.635Z,10.62
2023-06-08T07:59:16.579Z,10.20
2023-06-08T08:00:16.637Z,10.65
2023-06-08T08:01:17.364Z,9.24
2023-06-08T08:02:16.650Z,9.51
2023-06-08T08:03:16.634Z,9.73
2023-06-08T08:04:16.551Z,9.94
2023-06-08T08:05:16.540Z,9.44
2023-06-08T08:06:16.541Z,9.14
2023-06-08T08:07:17.373Z,9.92
2023-06-08T08:08:18.351Z,9.07
2023-06-08T08:09:16.867Z,9.54
2023-06-08T08:10:16.558Z,9.55
2023-06-08T08:11:16.477Z,9.28
2023-06-08T08:12:16.489Z,9.31
2023-06-08T08:13:16.481Z,10.02
2023-06-08T08:14:16.460Z,9.96
2023-06-08T08:15:16.490Z,9.71
2023-06-08T08:16:16.515Z,9.05
2023-06-08T08:17:16.620Z,10.11
2023-06-08T08:18:16.752Z,9.87
2023-06-08T08:19:16.720Z,9.80
2023-06-08T08:20:16.744Z,10.18
2023-06-08T08:21:16.797Z,10.16
2023-06-08T08:22:16.874Z,10.52
2023-06-08T08:23:16.958Z,9.88
2023-06-08T08:24:17.197Z,9.79
2023-06-08T08:25:17.028Z,9.61
2023-06-08T08:26:17.108Z,9.54
2023-06-08T08:27:18.589Z,10.04
2023-06-08T08:28:17.119Z,9.62
2023-06-08T08:29:17.127Z,9.99
2023-06-08T08:30:17.160Z,9.85
2023-06-08T08:31:17.242Z,8.88
2023-06-08T08:32:17.199Z,9.34
2023-06-08T08:33:18.125Z,9.83
2023-06-08T08:34:17.231Z,8.89
2023-06-08T08:35:17.274Z,8.38
2023-06-08T08:36:17.301Z,8.49
2023-06-08T08:37:17.305Z,9.05
2023-06-08T08:38:17.372Z,8.42
2023-06-08T08:39:17.415Z,8.60
2023-06-08T08:40:17.484Z,7.97
2023-06-08T08:41:17.670Z,8.88
2023-06-08T08:42:17.591Z,8.38
2023-06-08T08:43:17.627Z,8.70
2023-06-08T08:44:17.741Z,8.22
2023-06-08T08:45:17.635Z,8.12
2023-06-08T08:46:17.711Z,8.35
2023-06-08T08:47:17.665Z,8.29
2023-06-08T08:48:17.687Z,8.30
2023-06-08T08:49:17.674Z,8.10
2023-06-08T08:50:17.799Z,8.38
2023-06-08T08:51:17.746Z,7.95
2023-06-08T08:52:17.780Z,8.34
2023-06-08T08:53:17.802Z,8.06
2023-06-08T08:54:17.805Z,8.15
2023-06-08T08:55:30.380Z,8.41
2023-06-08T08:56:18.866Z,8.59
2023-06-08T08:57:17.761Z,8.14
2023-06-08T08:58:17.887Z,7.80
2023-06-08T08:59:17.790Z,8.27
2023-06-08T09:00:17.761Z,7.54
2023-06-08T09:01:17.768Z,7.84
2023-06-08T09:02:17.854Z,7.57
2023-06-08T09:03:17.794Z,7.60
2023-06-08T09:04:17.805Z,7.16
2023-06-08T09:05:17.709Z,7.92
2023-06-08T09:06:17.778Z,7.02
2023-06-08T09:07:18.354Z,7.85
2023-06-08T09:08:17.720Z,7.44
2023-06-08T09:09:17.692Z,7.12
2023-06-08T09:10:17.759Z,8.35
2023-06-08T09:11:17.702Z,7.39
2023-06-08T09:12:17.686Z,7.37
2023-06-08T09:13:17.705Z,7.36
2023-06-08T09:14:17.720Z,6.96
2023-06-08T09:15:17.824Z,7.59
2023-06-08T09:16:17.892Z,8.07
2023-06-08T09:17:17.862Z,7.90
2023-06-08T09:18:17.856Z,7.24
2023-06-08T09:19:17.852Z,6.83
2023-06-08T09:20:17.866Z,7.26
2023-06-08T09:21:17.877Z,6.95
2023-06-08T09:22:18.080Z,7.74
2023-06-08T09:23:17.952Z,6.53
2023-06-08T09:24:17.978Z,7.40
2023-06-08T09:25:17.955Z,7.84
2023-06-08T09:26:17.931Z,7.24
2023-06-08T09:27:17.954Z,7.66
2023-06-08T09:28:18.002Z,7.13
2023-06-08T09:29:18.022Z,7.29
2023-06-08T09:30:17.970Z,6.78
2023-06-08T09:31:18.085Z,7.76
2023-06-08T09:32:18.882Z,7.30
2023-06-08T09:33:18.073Z,7.81
2023-06-08T09:34:18.863Z,6.94
2023-06-08T09:35:17.985Z,7.36
2023-06-08T09:36:17.993Z,6.90
2023-06-08T09:37:17.986Z,7.43
2023-06-08T09:38:18.074Z,7.13
2023-06-08T09:39:18.054Z,7.12
2023-06-08T09:40:18.071Z,7.06
2023-06-08T09:41:18.093Z,7.25
2023-06-08T09:42:18.073Z,6.42
2023-06-08T09:43:18.103Z,6.93
2023-06-08T09:44:18.081Z,6.72
2023-06-08T09:45:18.117Z,7.11
2023-06-08T09:46:18.384Z,6.73
2023-06-08T09:47:18.150Z,7.18
2023-06-08T09:48:18.186Z,6.49
2023-06-08T09:49:18.181Z,7.04
2023-06-08T09:50:18.270Z,7.01
2023-06-08T09:51:18.192Z,6.89
2023-06-08T09:52:18.140Z,6.86
2023-06-08T09:53:18.228Z,6.99
2023-06-08T09:54:18.201Z,6.62
2023-06-08T09:55:18.259Z,7.16
2023-06-08T09:56:18.235Z,6.98
2023-06-08T09:57:18.228Z,6.59
2023-06-08T09:58:18.290Z,6.88
2023-06-08T09:59:18.287Z,6.82
2023-06-08T10:00:18.565Z,6.73
2023-06-08T10:01:18.468Z,6.77
2023-06-08T10:02:18.498Z,7.26
2023-06-08T10:03:18.712Z,6.65
2023-06-08T10:04:18.953Z,6.92
2023-06-08T10:05:18.659Z,6.95
2023-06-08T10:06:18.686Z,7.18
2023-06-08T10:07:18.747Z,7.15
2023-06-08T10:08:18.809Z,7.68
2023-06-08T10:09:18.794Z,14.65
2023-06-08T10:10:18.884Z,15.31
2023-06-08T10:11:18.885Z,13.00
2023-06-08T10:12:18.902Z,10.10
2023-06-08T10:13:18.997Z,7.62
2023-06-08T10:14:19.107Z,8.41
2023-06-08T10:15:19.074Z,8.04
2023-06-08T10:16:19.132Z,8.15
2023-06-08T10:17:19.155Z,8.29
2023-06-08T10:18:19.231Z,7.69
2023-06-08T10:19:19.281Z,7.74
2023-06-08T10:20:19.347Z,6.95
2023-06-08T10:21:19.339Z,6.45
2023-06-08T10:22:19.387Z,6.11
2023-06-08T10:23:19.479Z,5.77
2023-06-08T10:24:19.503Z,6.47
2023-06-08T10:25:19.499Z,6.33
2023-06-08T10:26:19.575Z,6.63
2023-06-08T10:27:19.602Z,6.41
2023-06-08T10:28:20.096Z,7.03
2023-06-08T10:29:22.575Z,5.92
2023-06-08T10:30:19.660Z,6.01
2023-06-08T10:31:19.720Z,6.02
2023-06-08T10:32:19.669Z,6.28
2023-06-08T10:33:19.712Z,5.99
2023-06-08T10:34:19.654Z,5.64
2023-06-08T10:35:19.699Z,6.35
2023-06-08T10:36:19.615Z,6.06
2023-06-08T10:37:19.615Z,5.87
2023-06-08T10:38:19.628Z,5.49
2023-06-08T10:39:19.632Z,5.70
2023-06-08T10:40:19.664Z,5.20
2023-06-08T10:41:19.648Z,5.54
2023-06-08T10:42:19.608Z,5.88
2023-06-08T10:43:48.335Z,5.62
2023-06-08T10:44:20.587Z,5.59
2023-06-08T10:45:20.378Z,6.58
2023-06-08T10:46:19.638Z,6.13
2023-06-08T10:47:19.559Z,6.67
2023-06-08T10:48:19.666Z,6.39
2023-06-08T10:49:19.560Z,6.30
2023-06-08T10:50:19.565Z,7.18
2023-06-08T10:51:19.544Z,6.61
2023-06-08T10:52:19.509Z,6.91
2023-06-08T10:53:19.532Z,6.98
2023-06-08T10:54:19.548Z,7.88
2023-06-08T10:55:19.561Z,6.71
2023-06-08T10:56:19.480Z,6.28
2023-06-08T10:57:19.479Z,7.04
2023-06-08T10:58:19.521Z,6.37
2023-06-08T10:59:19.509Z,6.93
2023-06-08T11:00:19.482Z,6.91
2023-06-08T11:01:19.506Z,6.17
2023-06-08T11:02:19.482Z,6.82
2023-06-08T11:03:19.539Z,6.72
2023-06-08T11:04:19.942Z,6.28
2023-06-08T11:05:19.548Z,6.22
2023-06-08T11:06:19.435Z,6.42
2023-06-08T11:07:21.162Z,7.55
2023-06-08T11:08:19.426Z,8.57
2023-06-08T11:09:19.462Z,8.93
2023-06-08T11:10:19.439Z,11.45
2023-06-08T11:11:19.450Z,9.96
2023-06-08T11:12:19.428Z,9.67
2023-06-08T11:13:19.480Z,10.17
2023-06-08T11:14:19.514Z,9.70
2023-06-08T11:15:19.575Z,9.65
2023-06-08T11:16:19.777Z,9.32
2023-06-08T11:17:19.635Z,9.12
2023-06-08T11:18:19.646Z,8.68
2023-06-08T11:19:19.659Z,8.48
2023-06-08T11:20:19.668Z,8.51
2023-06-08T11:21:19.648Z,8.38
2023-06-08T11:22:19.660Z,7.68
2023-06-08T11:23:19.666Z,7.98
2023-06-08T11:24:19.731Z,8.74
2023-06-08T11:25:19.681Z,8.11
2023-06-08T11:26:19.728Z,7.91
2023-06-08T11:27:19.731Z,7.98
2023-06-08T11:28:19.788Z,7.39
2023-06-08T11:29:19.845Z,7.63
2023-06-08T11:30:19.814Z,7.70
2023-06-08T11:31:19.973Z,7.37
2023-06-08T11:32:19.895Z,7.45
2023-06-08T11:33:19.968Z,7.21
2023-06-08T11:34:20.031Z,7.36
2023-06-08T11:35:20.056Z,6.48
2023-06-08T11:36:20.109Z,6.35
2023-06-08T11:37:20.175Z,7.58
2023-06-08T11:38:20.217Z,6.43
2023-06-08T11:39:20.274Z,6.85
2023-06-08T11:40:20.292Z,7.08
2023-06-08T11:41:20.382Z,6.83
2023-06-08T11:42:20.412Z,6.55
2023-06-08T11:43:20.415Z,6.71
2023-06-08T11:44:20.508Z,7.04
2023-06-08T11:45:20.576Z,6.63
2023-06-08T11:46:20.626Z,6.94
2023-06-08T11:47:20.724Z,6.56
2023-06-08T11:48:20.675Z,7.42
2023-06-08T11:49:20.730Z,7.23
2023-06-08T11:50:20.767Z,7.89
2023-06-08T11:51:20.779Z,8.33
2023-06-08T11:52:20.819Z,8.29
2023-06-08T11:53:20.899Z,7.45
2023-06-08T11:54:20.879Z,7.03
2023-06-08T11:55:20.869Z,7.49
2023-06-08T11:56:20.891Z,7.59
2023-06-08T11:57:20.900Z,7.84
2023-06-08T11:58:21.986Z,6.91
2023-06-08T11:59:20.965Z,6.65
2023-06-08T12:00:20.982Z,5.70
2023-06-08T12:01:20.984Z,5.53
2023-06-08T12:02:21.093Z,5.23
2023-06-08T12:03:21.109Z,5.79
2023-06-08T12:04:21.172Z,5.54
2023-06-08T12:05:23.251Z,5.99
2023-06-08T12:06:21.104Z,5.79
2023-06-08T12:07:21.205Z,5.76
2023-06-08T12:08:21.174Z,6.80
2023-06-08T12:09:21.214Z,6.23
2023-06-08T12:10:21.235Z,6.39
2023-06-08T12:11:24.115Z,5.57
2023-06-08T12:12:21.269Z,5.67
2023-06-08T12:13:21.250Z,4.48
2023-06-08T12:14:21.243Z,4.16
2023-06-08T12:15:21.255Z,4.55
2023-06-08T12:16:21.304Z,4.95
2023-06-08T12:17:21.367Z,5.01
2023-06-08T12:18:21.236Z,4.75
2023-06-08T12:19:21.219Z,5.51
2023-06-08T12:20:21.205Z,4.61
2023-06-08T12:21:21.189Z,5.25
2023-06-08T12:22:21.176Z,5.49
2023-06-08T12:23:23.823Z,5.71
2023-06-08T12:24:21.232Z,6.23
2023-06-08T12:25:21.205Z,5.73
2023-06-08T12:26:21.194Z,5.07
2023-06-08T12:27:21.146Z,5.31
2023-06-08T12:28:21.181Z,5.15
2023-06-08T12:29:23.184Z,5.36
2023-06-08T12:30:21.277Z,5.52
2023-06-08T12:31:21.244Z,5.11
2023-06-08T12:32:21.241Z,5.71
2023-06-08T12:33:21.224Z,4.73
2023-06-08T12:34:21.247Z,5.33
2023-06-08T12:35:23.164Z,5.11
2023-06-08T12:36:21.917Z,5.65
2023-06-08T12:37:21.340Z,5.12
2023-06-08T12:38:21.970Z,5.11
2023-06-08T12:39:21.446Z,5.14
2023-06-08T12:40:21.433Z,5.52
2023-06-08T12:41:21.504Z,5.13
2023-06-08T12:42:21.429Z,5.57
2023-06-08T12:43:21.387Z,5.09
2023-06-08T12:44:21.416Z,5.02
2023-06-08T12:45:21.359Z,4.79
2023-06-08T12:46:21.432Z,5.46
2023-06-08T12:47:21.376Z,5.27
2023-06-08T12:48:21.341Z,5.26
2023-06-08T12:49:21.366Z,5.78
2023-06-08T12:50:21.426Z,5.29
2023-06-08T12:51:21.501Z,5.49
2023-06-08T12:52:21.548Z,5.83
2023-06-08T12:53:21.638Z,5.78
2023-06-08T12:54:21.715Z,6.04
2023-06-08T12:55:21.707Z,4.97
2023-06-08T12:56:21.744Z,5.07
2023-06-08T12:57:22.413Z,5.37
2023-06-08T12:58:21.821Z,5.46
2023-06-08T12:59:21.893Z,4.93
2023-06-08T13:00:21.859Z,5.35
2023-06-08T13:01:21.935Z,4.51
2023-06-08T13:02:21.952Z,5.04
2023-06-08T13:03:21.990Z,4.96
2023-06-08T13:04:22.034Z,4.58
2023-06-08T13:05:22.067Z,5.08
2023-06-08T13:06:22.074Z,5.05
2023-06-08T13:07:22.175Z,4.92
2023-06-08T13:08:22.200Z,5.37
2023-06-08T13:09:22.298Z,5.20
2023-06-08T13:10:22.277Z,6.06
2023-06-08T13:11:22.441Z,6.15